sensor_id;sensor_type;location;lat;lon;timestamp;P1;durP1;ratioP1;P2;durP2;ratioP2
46491;SDS011;32206;51.446;6.792;2023-01-01T00:02:03;15.18;;;7.18;;
46491;SDS011;32206;51.446;6.792;2023-01-01T00:04:31;21.08;;;8.50;;
46491;SDS011;32206;51.446;6.792;2023-01-01T00:06:58;20.48;;;7.10;;
46491;SDS011;32206;51.446;6.792;2023-01-01T00:09:24;20.67;;;7.05;;
46491;SDS011;32206;51.446;6.792;2023-01-01T00:12:09;17.20;;;8.15;;
46491;SDS011;32206;51.446;6.792;2023-01-01T00:14:35;16.42;;;6.53;;
46491;SDS011;32206;51.446;6.792;2023-01-01T00:17:00;17.73;;;6.90;;
46491;SDS011;32206;51.446;6.792;2023-01-01T00:19:26;14.85;;;6.80;;
46491;SDS011;32206;51.446;6.792;2023-01-01T00:21:52;15.50;;;6.93;;
46491;SDS011;32206;51.446;6.792;2023-01-01T00:24:18;12.63;;;5.97;;
46491;SDS011;32206;51.446;6.792;2023-01-01T00:26:43;11.23;;;6.18;;
46491;SDS011;32206;51.446;6.792;2023-01-01T00:29:09;17.42;;;6.38;;
46491;SDS011;32206;51.446;6.792;2023-01-01T00:31:35;20.52;;;5.68;;
46491;SDS011;32206;51.446;6.792;2023-01-01T00:34:01;9.98;;;4.55;;
46491;SDS011;32206;51.446;6.792;2023-01-01T00:36:26;16.00;;;5.35;;
46491;SDS011;32206;51.446;6.792;2023-01-01T00:38:53;12.00;;;3.97;;
46491;SDS011;32206;51.446;6.792;2023-01-01T00:41:20;13.63;;;5.10;;
46491;SDS011;32206;51.446;6.792;2023-01-01T00:43:46;10.00;;;5.13;;
46491;SDS011;32206;51.446;6.792;2023-01-01T00:46:12;16.95;;;5.25;;
46491;SDS011;32206;51.446;6.792;2023-01-01T00:48:39;16.27;;;5.13;;
46491;SDS011;32206;51.446;6.792;2023-01-01T00:51:05;10.10;;;5.25;;
46491;SDS011;32206;51.446;6.792;2023-01-01T00:53:31;9.15;;;4.68;;
46491;SDS011;32206;51.446;6.792;2023-01-01T00:55:57;15.75;;;5.13;;
46491;SDS011;32206;51.446;6.792;2023-01-01T00:58:23;7.22;;;3.85;;
46491;SDS011;32206;51.446;6.792;2023-01-01T01:00:50;12.77;;;4.40;;
46491;SDS011;32206;51.446;6.792;2023-01-01T01:03:16;12.95;;;4.50;;
46491;SDS011;32206;51.446;6.792;2023-01-01T01:08:26;9.82;;;4.50;;
46491;SDS011;32206;51.446;6.792;2023-01-01T01:10:52;14.43;;;4.85;;
46491;SDS011;32206;51.446;6.792;2023-01-01T01:13:19;7.55;;;3.65;;
46491;SDS011;32206;51.446;6.792;2023-01-01T01:15:44;8.68;;;3.28;;
46491;SDS011;32206;51.446;6.792;2023-01-01T01:18:10;10.35;;;3.20;;
46491;SDS011;32206;51.446;6.792;2023-01-01T01:20:36;11.80;;;2.97;;
46491;SDS011;32206;51.446;6.792;2023-01-01T01:23:02;8.88;;;3.75;;
46491;SDS011;32206;51.446;6.792;2023-01-01T01:25:27;10.43;;;3.20;;
46491;SDS011;32206;51.446;6.792;2023-01-01T01:27:53;12.25;;;2.92;;
46491;SDS011;32206;51.446;6.792;2023-01-01T01:30:18;4.40;;;2.53;;
46491;SDS011;32206;51.446;6.792;2023-01-01T01:32:44;5.63;;;1.92;;
46491;SDS011;32206;51.446;6.792;2023-01-01T01:35:09;5.20;;;2.13;;
46491;SDS011;32206;51.446;6.792;2023-01-01T01:37:35;11.35;;;2.17;;
46491;SDS011;32206;51.446;6.792;2023-01-01T01:40:01;9.63;;;2.60;;
46491;SDS011;32206;51.446;6.792;2023-01-01T01:42:26;7.85;;;2.75;;
46491;SDS011;32206;51.446;6.792;2023-01-01T01:45:00;8.43;;;1.27;;
46491;SDS011;32206;51.446;6.792;2023-01-01T01:47:41;6.57;;;1.42;;
46491;SDS011;32206;51.446;6.792;2023-01-01T01:50:12;7.60;;;1.25;;
46491;SDS011;32206;51.446;6.792;2023-01-01T01:53:06;2.25;;;1.50;;
46491;SDS011;32206;51.446;6.792;2023-01-01T01:55:50;5.00;;;1.20;;
46491;SDS011;32206;51.446;6.792;2023-01-01T01:58:19;8.05;;;2.00;;
46491;SDS011;32206;51.446;6.792;2023-01-01T02:00:45;3.25;;;1.85;;
46491;SDS011;32206;51.446;6.792;2023-01-01T02:03:22;5.03;;;1.55;;
46491;SDS011;32206;51.446;6.792;2023-01-01T02:05:49;8.93;;;2.22;;
46491;SDS011;32206;51.446;6.792;2023-01-01T02:08:16;4.05;;;1.20;;
46491;SDS011;32206;51.446;6.792;2023-01-01T02:10:42;11.18;;;1.95;;
46491;SDS011;32206;51.446;6.792;2023-01-01T02:13:08;8.02;;;1.77;;
46491;SDS011;32206;51.446;6.792;2023-01-01T02:15:36;14.57;;;1.40;;
46491;SDS011;32206;51.446;6.792;2023-01-01T02:18:17;4.75;;;1.90;;
46491;SDS011;32206;51.446;6.792;2023-01-01T02:31:27;6.03;;;0.93;;
46491;SDS011;32206;51.446;6.792;2023-01-01T02:34:15;4.80;;;1.00;;
46491;SDS011;32206;51.446;6.792;2023-01-01T02:36:49;5.95;;;0.90;;
46491;SDS011;32206;51.446;6.792;2023-01-01T02:39:18;1.85;;;1.15;;
46491;SDS011;32206;51.446;6.792;2023-01-01T02:41:47;5.60;;;1.40;;
46491;SDS011;32206;51.446;6.792;2023-01-01T02:44:17;4.35;;;1.55;;
46491;SDS011;32206;51.446;6.792;2023-01-01T02:46:45;5.57;;;1.05;;
46491;SDS011;32206;51.446;6.792;2023-01-01T02:49:11;6.30;;;1.20;;
46491;SDS011;32206;51.446;6.792;2023-01-01T02:51:41;4.70;;;1.20;;
46491;SDS011;32206;51.446;6.792;2023-01-01T02:57:03;4.10;;;0.98;;
46491;SDS011;32206;51.446;6.792;2023-01-01T03:02:45;3.55;;;0.85;;
46491;SDS011;32206;51.446;6.792;2023-01-01T03:11:10;3.33;;;1.23;;
46491;SDS011;32206;51.446;6.792;2023-01-01T03:13:41;1.27;;;1.17;;
46491;SDS011;32206;51.446;6.792;2023-01-01T03:21:41;6.32;;;1.17;;
46491;SDS011;32206;51.446;6.792;2023-01-01T03:24:08;4.80;;;1.23;;
46491;SDS011;32206;51.446;6.792;2023-01-01T03:26:40;3.67;;;0.90;;
46491;SDS011;32206;51.446;6.792;2023-01-01T03:29:07;10.02;;;1.25;;
46491;SDS011;32206;51.446;6.792;2023-01-01T03:31:36;4.32;;;1.15;;
46491;SDS011;32206;51.446;6.792;2023-01-01T03:34:06;3.50;;;1.10;;
46491;SDS011;32206;51.446;6.792;2023-01-01T03:36:38;3.30;;;1.25;;
46491;SDS011;32206;51.446;6.792;2023-01-01T03:39:14;3.00;;;0.90;;
46491;SDS011;32206;51.446;6.792;2023-01-01T03:41:51;5.47;;;1.20;;
46491;SDS011;32206;51.446;6.792;2023-01-01T03:44:29;4.03;;;1.02;;
46491;SDS011;32206;51.446;6.792;2023-01-01T03:46:59;2.30;;;1.05;;
46491;SDS011;32206;51.446;6.792;2023-01-01T03:56:15;1.80;;;0.90;;
46491;SDS011;32206;51.446;6.792;2023-01-01T03:58:49;2.38;;;1.20;;
46491;SDS011;32206;51.446;6.792;2023-01-01T04:01:35;4.40;;;1.00;;
46491;SDS011;32206;51.446;6.792;2023-01-01T04:04:08;1.67;;;0.90;;
46491;SDS011;32206;51.446;6.792;2023-01-01T04:06:36;4.28;;;1.33;;
46491;SDS011;32206;51.446;6.792;2023-01-01T04:09:02;3.22;;;0.80;;
46491;SDS011;32206;51.446;6.792;2023-01-01T04:11:32;4.47;;;1.60;;
46491;SDS011;32206;51.446;6.792;2023-01-01T04:14:27;5.43;;;1.52;;
46491;SDS011;32206;51.446;6.792;2023-01-01T04:16:57;3.63;;;1.25;;
46491;SDS011;32206;51.446;6.792;2023-01-01T04:19:23;5.47;;;1.90;;
46491;SDS011;32206;51.446;6.792;2023-01-01T04:21:49;4.90;;;2.25;;
46491;SDS011;32206;51.446;6.792;2023-01-01T04:24:15;5.18;;;1.48;;
46491;SDS011;32206;51.446;6.792;2023-01-01T04:26:41;3.50;;;1.17;;
46491;SDS011;32206;51.446;6.792;2023-01-01T04:29:07;3.42;;;1.60;;
46491;SDS011;32206;51.446;6.792;2023-01-01T04:31:32;8.60;;;2.10;;
46491;SDS011;32206;51.446;6.792;2023-01-01T04:33:59;6.28;;;1.75;;
46491;SDS011;32206;51.446;6.792;2023-01-01T04:36:24;4.00;;;1.83;;
46491;SDS011;32206;51.446;6.792;2023-01-01T04:38:50;6.45;;;1.48;;
46491;SDS011;32206;51.446;6.792;2023-01-01T04:41:15;2.75;;;1.33;;
46491;SDS011;32206;51.446;6.792;2023-01-01T04:43:45;4.32;;;1.58;;
46491;SDS011;32206;51.446;6.792;2023-01-01T04:46:14;4.05;;;1.38;;
46491;SDS011;32206;51.446;6.792;2023-01-01T04:48:40;4.15;;;1.50;;
46491;SDS011;32206;51.446;6.792;2023-01-01T04:51:05;16.20;;;2.53;;
46491;SDS011;32206;51.446;6.792;2023-01-01T04:53:32;4.00;;;1.77;;
46491;SDS011;32206;51.446;6.792;2023-01-01T04:56:08;8.15;;;1.77;;
46491;SDS011;32206;51.446;6.792;2023-01-01T04:58:36;7.75;;;2.22;;
46491;SDS011;32206;51.446;6.792;2023-01-01T05:01:03;9.95;;;2.00;;
46491;SDS011;32206;51.446;6.792;2023-01-01T05:03:30;5.45;;;1.98;;
46491;SDS011;32206;51.446;6.792;2023-01-01T05:06:02;7.57;;;2.40;;
46491;SDS011;32206;51.446;6.792;2023-01-01T05:08:32;6.57;;;2.65;;
46491;SDS011;32206;51.446;6.792;2023-01-01T05:11:03;8.77;;;3.22;;
46491;SDS011;32206;51.446;6.792;2023-01-01T05:13:33;10.13;;;3.08;;
46491;SDS011;32206;51.446;6.792;2023-01-01T05:16:03;9.52;;;3.10;;
46491;SDS011;32206;51.446;6.792;2023-01-01T05:18:30;9.18;;;2.85;;
46491;SDS011;32206;51.446;6.792;2023-01-01T05:21:00;5.80;;;1.88;;
46491;SDS011;32206;51.446;6.792;2023-01-01T05:23:30;9.35;;;1.55;;
46491;SDS011;32206;51.446;6.792;2023-01-01T05:25:56;5.82;;;1.90;;
46491;SDS011;32206;51.446;6.792;2023-01-01T05:28:22;7.30;;;1.40;;
46491;SDS011;32206;51.446;6.792;2023-01-01T05:30:51;5.00;;;1.23;;
46491;SDS011;32206;51.446;6.792;2023-01-01T05:33:18;3.63;;;1.17;;
46491;SDS011;32206;51.446;6.792;2023-01-01T05:35:44;4.72;;;1.10;;
46491;SDS011;32206;51.446;6.792;2023-01-01T05:38:10;6.05;;;1.20;;
46491;SDS011;32206;51.446;6.792;2023-01-01T05:40:38;6.18;;;1.30;;
46491;SDS011;32206;51.446;6.792;2023-01-01T05:43:05;3.95;;;1.92;;
46491;SDS011;32206;51.446;6.792;2023-01-01T05:45:31;4.22;;;1.25;;
46491;SDS011;32206;51.446;6.792;2023-01-01T05:47:57;5.07;;;1.55;;
46491;SDS011;32206;51.446;6.792;2023-01-01T05:50:22;2.75;;;1.10;;
46491;SDS011;32206;51.446;6.792;2023-01-01T05:52:48;4.28;;;1.13;;
46491;SDS011;32206;51.446;6.792;2023-01-01T05:55:13;4.28;;;1.20;;
46491;SDS011;32206;51.446;6.792;2023-01-01T05:57:39;2.47;;;0.90;;
46491;SDS011;32206;51.446;6.792;2023-01-01T06:00:05;3.95;;;0.98;;
46491;SDS011;32206;51.446;6.792;2023-01-01T06:02:31;6.10;;;1.58;;
46491;SDS011;32206;51.446;6.792;2023-01-01T06:04:57;10.23;;;1.52;;
46491;SDS011;32206;51.446;6.792;2023-01-01T06:07:22;6.05;;;1.02;;
46491;SDS011;32206;51.446;6.792;2023-01-01T06:09:48;6.30;;;0.98;;
46491;SDS011;32206;51.446;6.792;2023-01-01T06:12:13;3.80;;;1.02;;
46491;SDS011;32206;51.446;6.792;2023-01-01T06:14:39;4.20;;;1.00;;
46491;SDS011;32206;51.446;6.792;2023-01-01T06:17:05;4.72;;;1.63;;
46491;SDS011;32206;51.446;6.792;2023-01-01T06:19:30;7.03;;;1.05;;
46491;SDS011;32206;51.446;6.792;2023-01-01T06:21:56;3.83;;;1.10;;
46491;SDS011;32206;51.446;6.792;2023-01-01T06:24:21;3.30;;;1.10;;
46491;SDS011;32206;51.446;6.792;2023-01-01T06:26:47;8.23;;;1.50;;
46491;SDS011;32206;51.446;6.792;2023-01-01T06:29:13;1.77;;;1.10;;
46491;SDS011;32206;51.446;6.792;2023-01-01T06:31:38;9.63;;;1.85;;
46491;SDS011;32206;51.446;6.792;2023-01-01T06:34:04;4.10;;;1.67;;
46491;SDS011;32206;51.446;6.792;2023-01-01T06:36:29;7.15;;;1.60;;
46491;SDS011;32206;51.446;6.792;2023-01-01T06:38:55;8.15;;;2.17;;
46491;SDS011;32206;51.446;6.792;2023-01-01T06:41:23;6.45;;;2.58;;
46491;SDS011;32206;51.446;6.792;2023-01-01T06:43:51;9.07;;;2.45;;
46491;SDS011;32206;51.446;6.792;2023-01-01T06:46:19;4.70;;;2.00;;
46491;SDS011;32206;51.446;6.792;2023-01-01T06:48:49;7.07;;;2.17;;
46491;SDS011;32206;51.446;6.792;2023-01-01T06:51:28;8.10;;;2.00;;
46491;SDS011;32206;51.446;6.792;2023-01-01T06:54:00;6.25;;;1.65;;
46491;SDS011;32206;51.446;6.792;2023-01-01T06:56:27;4.75;;;1.92;;
46491;SDS011;32206;51.446;6.792;2023-01-01T06:58:53;9.13;;;2.35;;
46491;SDS011;32206;51.446;6.792;2023-01-01T07:01:20;7.65;;;1.63;;
46491;SDS011;32206;51.446;6.792;2023-01-01T07:03:51;6.90;;;1.33;;
46491;SDS011;32206;51.446;6.792;2023-01-01T07:06:19;5.40;;;2.28;;
46491;SDS011;32206;51.446;6.792;2023-01-01T07:08:45;10.80;;;2.47;;
46491;SDS011;32206;51.446;6.792;2023-01-01T07:11:11;6.70;;;1.60;;
46491;SDS011;32206;51.446;6.792;2023-01-01T07:13:37;4.05;;;1.35;;
46491;SDS011;32206;51.446;6.792;2023-01-01T07:16:02;3.83;;;1.45;;
46491;SDS011;32206;51.446;6.792;2023-01-01T07:18:29;6.07;;;1.80;;
46491;SDS011;32206;51.446;6.792;2023-01-01T07:20:55;6.93;;;2.00;;
46491;SDS011;32206;51.446;6.792;2023-01-01T07:23:23;6.85;;;2.03;;
46491;SDS011;32206;51.446;6.792;2023-01-01T07:25:50;6.75;;;2.60;;
46491;SDS011;32206;51.446;6.792;2023-01-01T07:28:18;7.20;;;2.00;;
46491;SDS011;32206;51.446;6.792;2023-01-01T07:30:45;10.82;;;2.38;;
46491;SDS011;32206;51.446;6.792;2023-01-01T07:33:11;11.35;;;3.05;;
46491;SDS011;32206;51.446;6.792;2023-01-01T07:35:39;7.60;;;1.98;;
46491;SDS011;32206;51.446;6.792;2023-01-01T07:38:05;8.95;;;1.73;;
46491;SDS011;32206;51.446;6.792;2023-01-01T07:40:31;5.63;;;1.50;;
46491;SDS011;32206;51.446;6.792;2023-01-01T07:42:56;4.38;;;1.67;;
46491;SDS011;32206;51.446;6.792;2023-01-01T07:45:22;6.28;;;2.03;;
46491;SDS011;32206;51.446;6.792;2023-01-01T07:47:49;7.07;;;1.80;;
46491;SDS011;32206;51.446;6.792;2023-01-01T07:50:17;7.45;;;2.53;;
46491;SDS011;32206;51.446;6.792;2023-01-01T07:52:43;7.55;;;2.50;;
46491;SDS011;32206;51.446;6.792;2023-01-01T07:55:12;7.00;;;1.88;;
46491;SDS011;32206;51.446;6.792;2023-01-01T07:57:39;6.88;;;1.98;;
46491;SDS011;32206;51.446;6.792;2023-01-01T08:00:05;5.30;;;2.08;;
46491;SDS011;32206;51.446;6.792;2023-01-01T08:02:32;4.85;;;2.28;;
46491;SDS011;32206;51.446;6.792;2023-01-01T08:04:58;6.35;;;1.67;;
46491;SDS011;32206;51.446;6.792;2023-01-01T08:07:23;7.88;;;2.05;;
46491;SDS011;32206;51.446;6.792;2023-01-01T08:09:49;5.88;;;1.52;;
46491;SDS011;32206;51.446;6.792;2023-01-01T08:12:14;4.97;;;2.00;;
46491;SDS011;32206;51.446;6.792;2023-01-01T08:14:40;4.38;;;1.77;;
46491;SDS011;32206;51.446;6.792;2023-01-01T08:17:06;7.93;;;1.73;;
46491;SDS011;32206;51.446;6.792;2023-01-01T08:19:31;6.05;;;1.55;;
46491;SDS011;32206;51.446;6.792;2023-01-01T08:21:57;3.80;;;1.73;;
46491;SDS011;32206;51.446;6.792;2023-01-01T08:24:22;3.58;;;1.02;;
46491;SDS011;32206;51.446;6.792;2023-01-01T08:26:48;8.80;;;2.85;;
46491;SDS011;32206;51.446;6.792;2023-01-01T08:29:15;5.95;;;2.50;;
46491;SDS011;32206;51.446;6.792;2023-01-01T08:31:41;3.92;;;1.88;;
46491;SDS011;32206;51.446;6.792;2023-01-01T08:34:06;6.70;;;2.13;;
46491;SDS011;32206;51.446;6.792;2023-01-01T08:36:32;7.88;;;2.33;;
46491;SDS011;32206;51.446;6.792;2023-01-01T08:38:58;10.38;;;1.67;;
46491;SDS011;32206;51.446;6.792;2023-01-01T08:41:23;6.80;;;1.65;;
46491;SDS011;32206;51.446;6.792;2023-01-01T08:43:49;5.32;;;2.40;;
46491;SDS011;32206;51.446;6.792;2023-01-01T08:46:15;6.55;;;1.98;;
46491;SDS011;32206;51.446;6.792;2023-01-01T08:48:41;6.63;;;2.67;;
46491;SDS011;32206;51.446;6.792;2023-01-01T08:51:08;12.43;;;2.60;;
46491;SDS011;32206;51.446;6.792;2023-01-01T08:53:34;6.55;;;2.20;;
46491;SDS011;32206;51.446;6.792;2023-01-01T08:56:04;5.80;;;1.83;;
46491;SDS011;32206;51.446;6.792;2023-01-01T08:58:31;6.43;;;1.58;;
46491;SDS011;32206;51.446;6.792;2023-01-01T09:01:00;9.00;;;1.95;;
46491;SDS011;32206;51.446;6.792;2023-01-01T09:03:26;7.20;;;1.85;;
46491;SDS011;32206;51.446;6.792;2023-01-01T09:05:52;8.27;;;2.08;;
46491;SDS011;32206;51.446;6.792;2023-01-01T09:08:18;4.75;;;1.38;;
46491;SDS011;32206;51.446;6.792;2023-01-01T09:10:45;11.60;;;1.70;;
46491;SDS011;32206;51.446;6.792;2023-01-01T09:13:11;7.88;;;2.70;;
46491;SDS011;32206;51.446;6.792;2023-01-01T09:15:38;8.45;;;1.85;;
46491;SDS011;32206;51.446;6.792;2023-01-01T09:18:04;6.63;;;1.67;;
46491;SDS011;32206;51.446;6.792;2023-01-01T09:20:30;5.45;;;1.45;;
46491;SDS011;32206;51.446;6.792;2023-01-01T09:22:55;4.25;;;1.40;;
46491;SDS011;32206;51.446;6.792;2023-01-01T09:25:21;3.38;;;1.40;;
46491;SDS011;32206;51.446;6.792;2023-01-01T09:27:47;4.70;;;1.98;;
46491;SDS011;32206;51.446;6.792;2023-01-01T09:30:12;5.60;;;1.67;;
46491;SDS011;32206;51.446;6.792;2023-01-01T09:32:38;3.40;;;1.60;;
46491;SDS011;32206;51.446;6.792;2023-01-01T09:35:04;7.10;;;2.00;;
46491;SDS011;32206;51.446;6.792;2023-01-01T09:37:30;4.35;;;2.05;;
46491;SDS011;32206;51.446;6.792;2023-01-01T09:39:56;7.60;;;2.05;;
46491;SDS011;32206;51.446;6.792;2023-01-01T09:47:51;5.80;;;2.13;;
46491;SDS011;32206;51.446;6.792;2023-01-01T09:50:21;12.25;;;2.20;;
46491;SDS011;32206;51.446;6.792;2023-01-01T09:52:55;8.02;;;2.38;;
46491;SDS011;32206;51.446;6.792;2023-01-01T09:55:46;7.78;;;1.60;;
46491;SDS011;32206;51.446;6.792;2023-01-01T09:58:36;6.13;;;1.33;;
46491;SDS011;32206;51.446;6.792;2023-01-01T10:01:08;6.28;;;3.45;;
46491;SDS011;32206;51.446;6.792;2023-01-01T10:09:32;6.25;;;1.23;;
46491;SDS011;32206;51.446;6.792;2023-01-01T10:12:21;7.03;;;2.37;;
46491;SDS011;32206;51.446;6.792;2023-01-01T10:14:57;5.68;;;1.67;;
46491;SDS011;32206;51.446;6.792;2023-01-01T10:17:35;4.32;;;1.65;;
46491;SDS011;32206;51.446;6.792;2023-01-01T10:20:13;7.53;;;2.38;;
46491;SDS011;32206;51.446;6.792;2023-01-01T10:22:42;8.68;;;1.55;;
46491;SDS011;32206;51.446;6.792;2023-01-01T10:25:26;5.03;;;1.73;;
46491;SDS011;32206;51.446;6.792;2023-01-01T10:27:57;8.95;;;2.60;;
46491;SDS011;32206;51.446;6.792;2023-01-01T10:30:29;7.68;;;2.40;;
46491;SDS011;32206;51.446;6.792;2023-01-01T10:32:55;9.98;;;2.00;;
46491;SDS011;32206;51.446;6.792;2023-01-01T10:35:22;8.38;;;2.50;;
46491;SDS011;32206;51.446;6.792;2023-01-01T10:38:03;14.18;;;2.75;;
46491;SDS011;32206;51.446;6.792;2023-01-01T10:40:29;7.57;;;2.17;;
46491;SDS011;32206;51.446;6.792;2023-01-01T10:42:57;8.95;;;2.13;;
46491;SDS011;32206;51.446;6.792;2023-01-01T10:50:55;5.70;;;2.10;;
46491;SDS011;32206;51.446;6.792;2023-01-01T11:01:10;9.55;;;2.55;;
46491;SDS011;32206;51.446;6.792;2023-01-01T11:03:38;6.43;;;2.08;;
46491;SDS011;32206;51.446;6.792;2023-01-01T11:06:41;6.50;;;2.10;;
46491;SDS011;32206;51.446;6.792;2023-01-01T11:12:04;6.90;;;2.63;;
46491;SDS011;32206;51.446;6.792;2023-01-01T11:14:51;9.52;;;1.80;;
46491;SDS011;32206;51.446;6.792;2023-01-01T11:17:19;4.75;;;1.88;;
46491;SDS011;32206;51.446;6.792;2023-01-01T11:19:56;5.60;;;1.48;;
46491;SDS011;32206;51.446;6.792;2023-01-01T11:22:37;6.93;;;1.95;;
46491;SDS011;32206;51.446;6.792;2023-01-01T11:25:15;6.30;;;1.85;;
46491;SDS011;32206;51.446;6.792;2023-01-01T11:27:44;6.30;;;2.40;;
46491;SDS011;32206;51.446;6.792;2023-01-01T11:32:46;8.32;;;1.77;;
46491;SDS011;32206;51.446;6.792;2023-01-01T11:35:18;4.65;;;1.33;;
46491;SDS011;32206;51.446;6.792;2023-01-01T11:37:47;7.30;;;1.88;;
46491;SDS011;32206;51.446;6.792;2023-01-01T11:40:49;5.75;;;1.33;;
46491;SDS011;32206;51.446;6.792;2023-01-01T11:43:14;4.53;;;1.50;;
46491;SDS011;32206;51.446;6.792;2023-01-01T11:49:13;2.40;;;1.30;;
46491;SDS011;32206;51.446;6.792;2023-01-01T11:51:45;10.05;;;1.80;;
46491;SDS011;32206;51.446;6.792;2023-01-01T11:54:30;7.05;;;1.95;;
46491;SDS011;32206;51.446;6.792;2023-01-01T11:57:08;5.95;;;1.40;;
46491;SDS011;32206;51.446;6.792;2023-01-01T11:59:50;6.13;;;2.13;;
46491;SDS011;32206;51.446;6.792;2023-01-01T12:02:32;6.90;;;1.30;;
46491;SDS011;32206;51.446;6.792;2023-01-01T12:05:08;6.50;;;1.23;;
46491;SDS011;32206;51.446;6.792;2023-01-01T12:07:43;10.20;;;2.05;;
46491;SDS011;32206;51.446;6.792;2023-01-01T12:10:29;7.72;;;2.03;;
46491;SDS011;32206;51.446;6.792;2023-01-01T12:13:02;7.95;;;1.88;;
46491;SDS011;32206;51.446;6.792;2023-01-01T12:15:38;8.98;;;2.72;;
46491;SDS011;32206;51.446;6.792;2023-01-01T12:20:51;5.97;;;1.77;;
46491;SDS011;32206;51.446;6.792;2023-01-01T12:23:21;8.52;;;2.42;;
46491;SDS011;32206;51.446;6.792;2023-01-01T12:25:49;6.82;;;2.15;;
46491;SDS011;32206;51.446;6.792;2023-01-01T12:31:40;14.95;;;3.55;;
46491;SDS011;32206;51.446;6.792;2023-01-01T12:51:14;5.82;;;2.15;;
46491;SDS011;32206;51.446;6.792;2023-01-01T12:53:52;5.15;;;1.90;;
46491;SDS011;32206;51.446;6.792;2023-01-01T12:59:24;5.60;;;2.17;;
46491;SDS011;32206;51.446;6.792;2023-01-01T13:01:57;6.78;;;2.10;;
46491;SDS011;32206;51.446;6.792;2023-01-01T13:04:26;10.68;;;2.65;;
46491;SDS011;32206;51.446;6.792;2023-01-01T13:06:56;6.68;;;2.35;;
46491;SDS011;32206;51.446;6.792;2023-01-01T13:09:32;11.05;;;2.90;;
46491;SDS011;32206;51.446;6.792;2023-01-01T13:14:43;10.00;;;1.80;;
46491;SDS011;32206;51.446;6.792;2023-01-01T13:19:51;6.47;;;1.95;;
46491;SDS011;32206;51.446;6.792;2023-01-01T13:29:24;7.20;;;1.77;;
46491;SDS011;32206;51.446;6.792;2023-01-01T13:31:58;8.85;;;3.50;;
46491;SDS011;32206;51.446;6.792;2023-01-01T13:48:24;10.15;;;2.40;;
46491;SDS011;32206;51.446;6.792;2023-01-01T13:56:46;3.35;;;1.52;;
46491;SDS011;32206;51.446;6.792;2023-01-01T14:04:41;5.18;;;1.85;;
46491;SDS011;32206;51.446;6.792;2023-01-01T14:07:15;10.27;;;2.63;;
46491;SDS011;32206;51.446;6.792;2023-01-01T14:09:41;8.18;;;1.40;;
46491;SDS011;32206;51.446;6.792;2023-01-01T14:12:17;5.00;;;1.60;;
46491;SDS011;32206;51.446;6.792;2023-01-01T14:14:44;14.07;;;2.88;;
46491;SDS011;32206;51.446;6.792;2023-01-01T14:17:11;6.60;;;1.77;;
46491;SDS011;32206;51.446;6.792;2023-01-01T14:19:39;6.78;;;2.28;;
46491;SDS011;32206;51.446;6.792;2023-01-01T14:22:09;8.68;;;2.40;;
46491;SDS011;32206;51.446;6.792;2023-01-01T14:24:42;6.82;;;2.25;;
46491;SDS011;32206;51.446;6.792;2023-01-01T14:27:15;6.88;;;1.40;;
46491;SDS011;32206;51.446;6.792;2023-01-01T14:29:45;4.22;;;1.35;;
46491;SDS011;32206;51.446;6.792;2023-01-01T14:32:14;12.35;;;1.80;;
46491;SDS011;32206;51.446;6.792;2023-01-01T14:34:48;4.68;;;1.77;;
46491;SDS011;32206;51.446;6.792;2023-01-01T14:40:06;5.68;;;1.35;;
46491;SDS011;32206;51.446;6.792;2023-01-01T14:42:33;4.05;;;1.83;;
46491;SDS011;32206;51.446;6.792;2023-01-01T14:45:00;5.32;;;1.92;;
46491;SDS011;32206;51.446;6.792;2023-01-01T14:47:26;3.42;;;1.30;;
46491;SDS011;32206;51.446;6.792;2023-01-01T14:50:01;7.00;;;1.98;;
46491;SDS011;32206;51.446;6.792;2023-01-01T14:52:52;3.55;;;1.65;;
46491;SDS011;32206;51.446;6.792;2023-01-01T14:55:31;7.78;;;2.13;;
46491;SDS011;32206;51.446;6.792;2023-01-01T14:58:01;4.13;;;1.50;;
46491;SDS011;32206;51.446;6.792;2023-01-01T15:00:29;9.82;;;2.72;;
46491;SDS011;32206;51.446;6.792;2023-01-01T15:03:06;7.95;;;1.88;;
46491;SDS011;32206;51.446;6.792;2023-01-01T15:05:39;7.45;;;1.63;;
46491;SDS011;32206;51.446;6.792;2023-01-01T15:08:06;3.92;;;1.35;;
46491;SDS011;32206;51.446;6.792;2023-01-01T15:10:42;6.30;;;2.03;;
46491;SDS011;32206;51.446;6.792;2023-01-01T15:13:12;5.90;;;2.05;;
46491;SDS011;32206;51.446;6.792;2023-01-01T15:15:47;8.07;;;1.55;;
46491;SDS011;32206;51.446;6.792;2023-01-01T15:20:58;4.30;;;1.40;;
46491;SDS011;32206;51.446;6.792;2023-01-01T15:23:25;8.90;;;2.20;;
46491;SDS011;32206;51.446;6.792;2023-01-01T15:25:50;3.15;;;1.27;;
46491;SDS011;32206;51.446;6.792;2023-01-01T15:28:19;4.25;;;1.45;;
46491;SDS011;32206;51.446;6.792;2023-01-01T15:30:50;4.60;;;1.52;;
46491;SDS011;32206;51.446;6.792;2023-01-01T15:33:20;3.85;;;1.38;;
46491;SDS011;32206;51.446;6.792;2023-01-01T15:35:47;7.03;;;2.00;;
46491;SDS011;32206;51.446;6.792;2023-01-01T15:38:22;4.97;;;1.50;;
46491;SDS011;32206;51.446;6.792;2023-01-01T15:40:50;3.40;;;1.88;;
46491;SDS011;32206;51.446;6.792;2023-01-01T15:43:22;12.68;;;1.65;;
46491;SDS011;32206;51.446;6.792;2023-01-01T15:45:54;3.63;;;1.40;;
46491;SDS011;32206;51.446;6.792;2023-01-01T15:48:35;5.00;;;1.70;;
46491;SDS011;32206;51.446;6.792;2023-01-01T15:51:11;6.15;;;1.42;;
46491;SDS011;32206;51.446;6.792;2023-01-01T15:56:22;4.72;;;1.55;;
46491;SDS011;32206;51.446;6.792;2023-01-01T16:01:25;12.60;;;1.90;;
46491;SDS011;32206;51.446;6.792;2023-01-01T16:03:57;4.15;;;1.30;;
46491;SDS011;32206;51.446;6.792;2023-01-01T16:06:26;12.80;;;2.08;;
46491;SDS011;32206;51.446;6.792;2023-01-01T16:08:52;5.07;;;1.58;;
46491;SDS011;32206;51.446;6.792;2023-01-01T16:11:17;4.80;;;1.35;;
46491;SDS011;32206;51.446;6.792;2023-01-01T16:13:43;3.75;;;1.50;;
46491;SDS011;32206;51.446;6.792;2023-01-01T16:18:48;4.65;;;2.45;;
46491;SDS011;32206;51.446;6.792;2023-01-01T16:21:14;7.40;;;2.10;;
46491;SDS011;32206;51.446;6.792;2023-01-01T16:23:40;8.40;;;1.70;;
46491;SDS011;32206;51.446;6.792;2023-01-01T16:26:06;5.80;;;1.13;;
46491;SDS011;32206;51.446;6.792;2023-01-01T16:28:31;6.82;;;1.40;;
46491;SDS011;32206;51.446;6.792;2023-01-01T16:30:57;3.88;;;1.55;;
46491;SDS011;32206;51.446;6.792;2023-01-01T16:33:23;4.68;;;1.45;;
46491;SDS011;32206;51.446;6.792;2023-01-01T16:35:49;7.47;;;2.75;;
46491;SDS011;32206;51.446;6.792;2023-01-01T16:38:14;8.20;;;1.83;;
46491;SDS011;32206;51.446;6.792;2023-01-01T16:40:40;4.90;;;1.50;;
46491;SDS011;32206;51.446;6.792;2023-01-01T16:43:08;6.80;;;1.65;;
46491;SDS011;32206;51.446;6.792;2023-01-01T16:45:39;4.07;;;1.73;;
46491;SDS011;32206;51.446;6.792;2023-01-01T16:48:05;5.97;;;1.45;;
46491;SDS011;32206;51.446;6.792;2023-01-01T16:50:31;3.20;;;0.90;;
46491;SDS011;32206;51.446;6.792;2023-01-01T16:52:56;2.75;;;1.23;;
46491;SDS011;32206;51.446;6.792;2023-01-01T16:55:22;5.28;;;1.30;;
46491;SDS011;32206;51.446;6.792;2023-01-01T16:57:48;2.80;;;1.23;;
46491;SDS011;32206;51.446;6.792;2023-01-01T17:00:13;6.07;;;1.90;;
46491;SDS011;32206;51.446;6.792;2023-01-01T17:02:39;3.80;;;1.10;;
46491;SDS011;32206;51.446;6.792;2023-01-01T17:05:05;5.72;;;1.40;;
46491;SDS011;32206;51.446;6.792;2023-01-01T17:07:31;3.53;;;1.20;;
46491;SDS011;32206;51.446;6.792;2023-01-01T17:09:57;8.13;;;1.50;;
46491;SDS011;32206;51.446;6.792;2023-01-01T17:12:22;3.05;;;1.30;;
46491;SDS011;32206;51.446;6.792;2023-01-01T17:14:48;3.47;;;1.20;;
46491;SDS011;32206;51.446;6.792;2023-01-01T17:17:14;2.25;;;0.90;;
46491;SDS011;32206;51.446;6.792;2023-01-01T17:19:39;5.18;;;2.08;;
46491;SDS011;32206;51.446;6.792;2023-01-01T17:22:05;4.97;;;1.50;;
46491;SDS011;32206;51.446;6.792;2023-01-01T17:24:31;5.65;;;2.78;;
46491;SDS011;32206;51.446;6.792;2023-01-01T17:26:56;3.72;;;2.50;;